createdAt,value
2018-10-03T00:01:38.000Z,65.50
2018-10-03T00:06:28.908Z,65.30
2018-10-03T00:11:19.809Z,65.20
2018-10-03T00:16:11.448Z,65.00
2018-10-03T00:21:02.373Z,65.00
2018-10-03T00:25:53.285Z,65.00
2018-10-03T00:30:44.203Z,64.80
2018-10-03T00:35:35.160Z,64.80
2018-10-03T00:40:26.053Z,64.80
2018-10-03T00:45:16.961Z,64.80
2018-10-03T00:50:07.876Z,64.70
2018-10-03T00:54:59.604Z,64.50
2018-10-03T00:59:50.563Z,64.50
2018-10-03T01:04:41.502Z,64.50
2018-10-03T01:09:33.224Z,64.50
2018-10-03T01:14:24.128Z,64.40
2018-10-03T01:19:15.036Z,64.40
2018-10-03T01:24:06.735Z,64.30
2018-10-03T01:28:57.817Z,64.30
2018-10-03T01:33:48.759Z,64.40
2018-10-03T01:38:40.441Z,64.50
2018-10-03T01:43:32.088Z,64.70
2018-10-03T01:48:22.986Z,64.60
2018-10-03T01:53:14.705Z,64.10
2018-10-03T01:58:05.627Z,65.20
2018-10-03T02:02:57.371Z,64.40
2018-10-03T02:07:48.353Z,64.40
2018-10-03T02:12:39.259Z,64.30
2018-10-03T02:17:30.925Z,64.10
2018-10-03T02:22:21.836Z,64.10
2018-10-03T02:27:12.752Z,64.00
2018-10-03T02:32:03.669Z,64.00
2018-10-03T02:36:54.578Z,63.80
2018-10-03T02:41:45.478Z,63.80
2018-10-03T02:46:37.899Z,63.80
2018-10-03T02:51:29.535Z,63.90
2018-10-03T02:56:20.461Z,63.90
2018-10-03T03:01:11.429Z,64.00
2018-10-03T03:06:02.335Z,64.00
2018-10-03T03:10:53.288Z,63.90
2018-10-03T03:15:44.194Z,63.90
2018-10-03T03:20:35.110Z,63.70
2018-10-03T03:25:26.060Z,63.80
2018-10-03T03:30:17.773Z,63.70
2018-10-03T03:35:08.657Z,63.70
2018-10-03T03:39:59.567Z,63.70
2018-10-03T03:44:51.217Z,63.90
2018-10-03T03:49:42.131Z,63.80
2018-10-03T03:54:33.782Z,64.60
2018-10-03T03:59:24.774Z,64.60
2018-10-03T04:04:16.415Z,64.60
2018-10-03T04:09:07.328Z,64.60
2018-10-03T04:13:58.996Z,64.60
2018-10-03T04:18:50.616Z,64.50
2018-10-03T04:23:41.507Z,64.50
2018-10-03T04:28:32.465Z,64.50
2018-10-03T04:33:23.373Z,64.50
2018-10-03T04:38:14.287Z,64.50
2018-10-03T04:43:05.197Z,64.40
2018-10-03T04:47:56.107Z,64.40
2018-10-03T04:52:47.739Z,64.40
2018-10-03T04:57:38.659Z,64.40
2018-10-03T05:02:30.303Z,64.30
2018-10-03T05:07:21.203Z,64.30
2018-10-03T05:12:12.864Z,63.40
2018-10-03T05:17:03.759Z,63.40
2018-10-03T05:21:55.451Z,63.30
2018-10-03T05:26:46.343Z,63.30
2018-10-03T05:31:44.143Z,63.30
2018-10-03T05:36:35.785Z,63.20
2018-10-03T05:41:26.678Z,64.10
2018-10-03T05:46:18.312Z,63.20
2018-10-03T05:51:09.234Z,63.20
2018-10-03T05:56:00.863Z,63.20
2018-10-03T06:00:51.748Z,63.20
2018-10-03T06:05:42.656Z,63.20
2018-10-03T06:10:34.275Z,63.20
2018-10-03T06:15:25.222Z,63.10
2018-10-03T06:20:16.128Z,63.20
2018-10-03T06:25:07.044Z,63.10
2018-10-03T06:29:58.734Z,63.20
2018-10-03T06:34:49.637Z,63.10
2018-10-03T06:39:40.538Z,63.10
2018-10-03T06:44:31.612Z,63.10
2018-10-03T06:49:22.495Z,63.10
2018-10-03T06:54:14.142Z,63.10
2018-10-03T06:59:05.040Z,63.10
2018-10-03T07:03:56.754Z,63.10
2018-10-03T07:08:47.660Z,63.00
2018-10-03T07:13:38.590Z,63.00
2018-10-03T07:18:30.225Z,63.10
2018-10-03T07:23:21.203Z,63.10
2018-10-03T07:28:12.141Z,63.00
2018-10-03T07:33:03.018Z,63.30
2018-10-03T07:37:53.964Z,63.20
2018-10-03T07:42:44.945Z,63.20
2018-10-03T07:47:35.889Z,63.20
2018-10-03T07:52:26.783Z,63.20
2018-10-03T07:57:17.749Z,63.10
2018-10-03T08:02:09.327Z,63.20
2018-10-03T08:07:00.234Z,63.20
2018-10-03T08:11:51.875Z,63.60
2018-10-03T08:16:42.839Z,63.00
2018-10-03T08:21:33.809Z,63.00
2018-10-03T08:26:24.726Z,62.90
2018-10-03T08:31:16.371Z,62.70
2018-10-03T08:36:07.277Z,62.60
2018-10-03T08:40:58.914Z,62.40
2018-10-03T08:45:49.822Z,62.40
2018-10-03T08:50:41.475Z,62.00
2018-10-03T08:55:32.411Z,62.10
2018-10-03T09:00:23.336Z,62.00
2018-10-03T09:05:14.229Z,61.90
2018-10-03T09:10:05.867Z,61.80
2018-10-03T09:14:56.814Z,61.80
2018-10-03T09:19:47.736Z,62.30
2018-10-03T09:24:39.432Z,62.20
2018-10-03T09:29:31.060Z,61.30
2018-10-03T09:34:21.968Z,61.30
2018-10-03T09:39:12.865Z,61.20
2018-10-03T09:44:03.796Z,61.10
2018-10-03T09:48:55.428Z,61.10
2018-10-03T09:53:46.501Z,61.10
2018-10-03T09:58:37.468Z,60.70
2018-10-03T10:03:28.367Z,60.80
2018-10-03T10:08:19.249Z,60.90
2018-10-03T10:13:10.160Z,60.70
2018-10-03T10:18:01.056Z,60.50
2018-10-03T10:22:52.038Z,60.40
2018-10-03T10:27:42.953Z,60.00
2018-10-03T10:32:34.683Z,59.90
2018-10-03T10:37:25.607Z,59.90
2018-10-03T10:42:17.257Z,60.10
2018-10-03T10:47:08.153Z,60.10
2018-10-03T10:51:59.905Z,60.10
2018-10-03T10:56:50.806Z,60.10
2018-10-03T11:01:42.439Z,60.50
2018-10-03T11:06:33.369Z,60.40
2018-10-03T11:11:24.992Z,60.50
2018-10-03T11:16:15.892Z,60.50
2018-10-03T11:21:06.779Z,61.00
2018-10-03T11:25:58.484Z,61.20
2018-10-03T11:30:49.390Z,61.20
2018-10-03T11:35:40.279Z,61.30
2018-10-03T11:40:31.205Z,61.40
2018-10-03T11:45:22.205Z,61.50
2018-10-03T11:50:13.133Z,61.70
2018-10-03T11:55:04.008Z,61.70
2018-10-03T11:59:55.692Z,62.00
2018-10-03T12:04:47.346Z,62.00
2018-10-03T12:09:38.249Z,62.50
2018-10-03T12:14:29.893Z,62.20
2018-10-03T12:19:20.811Z,62.20
2018-10-03T12:24:12.461Z,61.90
2018-10-03T12:29:03.369Z,61.90
2018-10-03T12:33:55.092Z,61.60
2018-10-03T12:38:45.972Z,61.60
2018-10-03T12:43:36.868Z,61.50
2018-10-03T12:48:27.763Z,61.20
2018-10-03T12:53:19.396Z,61.00
2018-10-03T12:58:10.313Z,60.90
2018-10-03T13:03:02.009Z,60.50
2018-10-03T13:07:52.895Z,60.50
2018-10-03T13:12:43.785Z,60.20
2018-10-03T13:17:34.685Z,58.90
2018-10-03T13:22:25.575Z,56.60
2018-10-03T13:27:17.274Z,58.20
2018-10-03T13:32:08.918Z,58.60
2018-10-03T13:36:59.823Z,58.50
2018-10-03T13:41:51.524Z,57.80
2018-10-03T13:46:42.487Z,57.80
2018-10-03T13:51:33.312Z,58.00
2018-10-03T13:56:24.226Z,58.00
2018-10-03T14:01:15.133Z,57.90
2018-10-03T14:06:06.045Z,57.80
2018-10-03T14:10:57.787Z,58.00
2018-10-03T14:15:48.811Z,58.00
2018-10-03T14:20:39.717Z,58.10
2018-10-03T14:25:30.617Z,58.10
2018-10-03T14:30:21.534Z,57.80
2018-10-03T14:35:12.431Z,57.80
2018-10-03T14:40:03.312Z,57.80
2018-10-03T14:44:54.268Z,57.80
2018-10-03T14:49:45.191Z,57.70
2018-10-03T14:54:36.091Z,58.00
2018-10-03T14:59:27.039Z,57.80
2018-10-03T15:04:18.001Z,57.70
2018-10-03T15:09:08.986Z,57.70
2018-10-03T15:13:59.884Z,58.00
2018-10-03T15:18:50.806Z,57.80
2018-10-03T15:23:41.741Z,57.80
2018-10-03T15:28:33.404Z,58.30
2018-10-03T15:33:24.300Z,57.80
2018-10-03T15:38:16.026Z,57.60
2018-10-03T15:43:06.956Z,57.70
2018-10-03T15:47:58.787Z,57.70
2018-10-03T15:52:49.674Z,57.70
2018-10-03T15:57:40.595Z,57.80
2018-10-03T16:02:31.550Z,57.80
2018-10-03T16:07:23.219Z,57.90
2018-10-03T16:12:14.171Z,57.90
2018-10-03T16:17:05.204Z,58.00
2018-10-03T16:21:56.105Z,58.10
2018-10-03T16:26:47.140Z,58.10
2018-10-03T16:31:38.081Z,58.00
2018-10-03T16:36:29.089Z,58.10
2018-10-03T16:41:20.038Z,58.10
2018-10-03T16:46:10.988Z,58.20
2018-10-03T16:51:01.987Z,58.00
2018-10-03T16:55:53.667Z,58.10
2018-10-03T17:00:44.577Z,58.10
2018-10-03T17:05:35.475Z,57.70
2018-10-03T17:10:26.360Z,58.40
2018-10-03T17:15:18.794Z,58.50
2018-10-03T17:20:09.648Z,58.40
2018-10-03T17:25:01.304Z,58.50
2018-10-03T17:29:52.201Z,58.50
2018-10-03T17:34:43.905Z,58.60
2018-10-03T17:39:35.545Z,58.60
2018-10-03T17:44:26.476Z,58.60
2018-10-03T17:49:17.373Z,58.70
2018-10-03T17:54:08.279Z,58.70
2018-10-03T17:58:59.230Z,58.80
2018-10-03T18:03:50.838Z,59.00
2018-10-03T18:08:41.740Z,59.00
2018-10-03T18:13:32.744Z,59.10
2018-10-03T18:18:23.597Z,59.20
2018-10-03T18:23:15.240Z,59.40
2018-10-03T18:28:06.180Z,59.30
2018-10-03T18:32:57.100Z,59.30
2018-10-03T18:37:49.487Z,59.30
2018-10-03T18:42:40.388Z,59.30
2018-10-03T18:47:32.026Z,59.40
2018-10-03T18:52:23.012Z,59.40
2018-10-03T18:57:14.624Z,59.40
2018-10-03T19:02:05.570Z,59.30
2018-10-03T19:06:56.470Z,59.30
2018-10-03T19:11:47.378Z,59.40
2018-10-03T19:16:38.314Z,59.30
2018-10-03T19:21:29.995Z,59.60
2018-10-03T19:26:21.060Z,59.30
2018-10-03T19:31:12.645Z,59.40
2018-10-03T19:36:03.562Z,59.40
2018-10-03T19:40:55.213Z,59.40
2018-10-03T19:45:46.193Z,59.30
2018-10-03T19:50:37.023Z,59.30
2018-10-03T19:55:27.930Z,59.30
2018-10-03T20:00:18.844Z,59.40
2018-10-03T20:05:09.765Z,59.40
2018-10-03T20:10:00.727Z,60.40
2018-10-03T20:14:51.652Z,60.40
2018-10-03T20:19:42.561Z,60.40
2018-10-03T20:24:33.473Z,60.50
2018-10-03T20:29:24.387Z,60.50
2018-10-03T20:34:16.096Z,60.60
2018-10-03T20:39:06.923Z,60.60
2018-10-03T20:43:57.833Z,60.60
2018-10-03T20:48:48.759Z,60.60
2018-10-03T20:53:41.268Z,60.80
2018-10-03T20:58:32.165Z,60.70
2018-10-03T21:03:23.064Z,60.80
2018-10-03T21:08:14.021Z,60.70
2018-10-03T21:13:04.900Z,60.80
2018-10-03T21:17:55.797Z,60.80
2018-10-03T21:22:47.484Z,61.50
2018-10-03T21:27:38.395Z,60.90
2018-10-03T21:32:30.061Z,60.90
2018-10-03T21:37:20.994Z,60.90
2018-10-03T21:42:11.896Z,60.90
2018-10-03T21:47:03.527Z,61.00
2018-10-03T21:51:54.426Z,60.90
2018-10-03T21:56:45.320Z,61.00
2018-10-03T22:01:36.974Z,61.20
2018-10-03T22:06:27.857Z,61.10
2018-10-03T22:11:18.750Z,61.20
2018-10-03T22:16:09.693Z,60.80
2018-10-03T22:21:00.605Z,61.20
2018-10-03T22:25:51.560Z,61.20
2018-10-03T22:30:42.440Z,61.20
2018-10-03T22:35:33.359Z,61.30
2018-10-03T22:40:24.990Z,61.30
2018-10-03T22:45:15.880Z,61.20
2018-10-03T22:50:06.769Z,61.80
2018-10-03T22:54:57.727Z,61.20
2018-10-03T22:59:48.632Z,61.30
2018-10-03T23:04:45.297Z,61.10
2018-10-03T23:09:36.237Z,61.10
2018-10-03T23:14:27.176Z,61.10
2018-10-03T23:19:18.152Z,61.10
2018-10-03T23:24:09.043Z,61.20
2018-10-03T23:28:59.950Z,61.10
2018-10-03T23:33:50.875Z,61.20
2018-10-03T23:38:41.784Z,61.20
2018-10-03T23:43:32.722Z,61.20
2018-10-03T23:48:23.604Z,61.20
2018-10-03T23:53:14.531Z,61.20
2018-10-03T23:58:05.424Z,61.10
